createdAt,value
2019-06-20T00:01:16.269Z,3.10
2019-06-20T00:03:45.191Z,3.07
2019-06-20T00:06:33.448Z,3.20
2019-06-20T00:09:02.799Z,3.40
2019-06-20T00:11:32.290Z,3.27
2019-06-20T00:14:00.960Z,3.00
2019-06-20T00:16:49.253Z,3.27
2019-06-20T00:19:37.515Z,3.53
2019-06-20T00:22:25.516Z,3.30
2019-06-20T00:25:13.578Z,3.13
2019-06-20T00:28:01.609Z,3.20
2019-06-20T00:30:49.659Z,3.10
2019-06-20T00:33:37.689Z,3.47
2019-06-20T00:36:26.249Z,3.20
2019-06-20T00:38:55.552Z,2.70
2019-06-20T00:41:25.027Z,2.80
2019-06-20T00:44:13.537Z,3.43
2019-06-20T00:47:01.514Z,3.00
2019-06-20T00:49:50.285Z,2.67
2019-06-20T00:52:19.250Z,3.37
2019-06-20T00:54:48.225Z,3.03
2019-06-20T00:57:36.777Z,2.60
2019-06-20T01:00:24.770Z,2.90
2019-06-20T01:02:53.967Z,3.00
2019-06-20T01:05:42.276Z,3.27
2019-06-20T01:08:30.554Z,2.83
2019-06-20T01:11:18.813Z,2.90
2019-06-20T01:14:07.037Z,3.03
2019-06-20T01:16:55.337Z,3.10
2019-06-20T01:19:43.343Z,2.90
2019-06-20T01:22:31.428Z,2.90
2019-06-20T01:25:49.697Z,2.80
2019-06-20T01:28:38.272Z,3.77
2019-06-20T01:31:26.816Z,2.57
2019-06-20T01:34:14.819Z,3.10
2019-06-20T01:37:03.075Z,3.20
2019-06-20T01:39:51.040Z,2.60
2019-06-20T01:42:39.271Z,2.63
2019-06-20T01:45:27.381Z,2.90
2019-06-20T01:47:56.112Z,3.03
2019-06-20T01:50:24.775Z,3.57
2019-06-20T01:53:05.272Z,3.00
2019-06-20T01:55:46.228Z,2.90
2019-06-20T01:58:27.505Z,3.20
2019-06-20T02:01:08.678Z,2.80
2019-06-20T02:03:37.882Z,3.40
2019-06-20T02:06:25.881Z,2.80
2019-06-20T02:09:14.145Z,3.30
2019-06-20T02:12:02.636Z,3.20
2019-06-20T02:14:50.933Z,3.03
2019-06-20T02:17:19.649Z,2.73
2019-06-20T02:20:07.884Z,2.63
2019-06-20T02:22:37.086Z,3.03
2019-06-20T02:25:25.330Z,2.60
2019-06-20T02:27:54.256Z,3.13
2019-06-20T02:30:23.156Z,5.30
2019-06-20T02:32:52.211Z,2.67
2019-06-20T02:35:20.889Z,3.10
2019-06-20T02:38:08.885Z,2.80
2019-06-20T02:40:56.867Z,2.97
2019-06-20T02:43:45.168Z,2.80
2019-06-20T02:46:14.175Z,2.90
2019-06-20T02:49:02.145Z,3.20
2019-06-20T02:51:50.185Z,3.00
2019-06-20T02:54:30.983Z,3.20
2019-06-20T02:56:59.683Z,2.40
2019-06-20T02:59:47.660Z,3.00
2019-06-20T03:02:35.717Z,2.93
2019-06-20T03:05:23.681Z,3.07
2019-06-20T03:08:11.724Z,2.73
2019-06-20T03:10:40.399Z,3.00
2019-06-20T03:13:28.648Z,3.10
2019-06-20T03:15:57.358Z,2.70
2019-06-20T03:18:26.496Z,3.07
2019-06-20T03:21:14.736Z,2.93
2019-06-20T03:24:02.977Z,2.53
2019-06-20T03:26:51.236Z,2.70
2019-06-20T03:29:39.836Z,2.80
2019-06-20T03:32:08.775Z,3.10
2019-06-20T03:34:57.008Z,2.80
2019-06-20T03:37:45.277Z,2.97
2019-06-20T03:40:33.552Z,2.53
2019-06-20T03:43:21.757Z,3.10
2019-06-20T03:46:09.753Z,2.40
2019-06-20T03:48:38.447Z,2.83
2019-06-20T03:51:26.428Z,2.70
2019-06-20T03:54:07.445Z,2.53
2019-06-20T03:56:36.504Z,2.33
2019-06-20T03:59:24.735Z,3.17
2019-06-20T04:02:12.804Z,2.73
2019-06-20T04:05:00.857Z,3.20
2019-06-20T04:07:49.165Z,3.00
2019-06-20T04:10:37.779Z,2.70
2019-06-20T04:13:26.342Z,2.57
2019-06-20T04:16:14.397Z,2.70
2019-06-20T04:19:02.381Z,2.77
2019-06-20T04:21:31.092Z,2.77
2019-06-20T04:24:12.016Z,2.53
2019-06-20T04:26:53.252Z,2.77
2019-06-20T04:29:35.954Z,2.80
2019-06-20T04:32:16.609Z,2.87
2019-06-20T04:34:46.184Z,2.50
2019-06-20T04:37:34.589Z,2.73
2019-06-20T04:40:22.875Z,2.30
2019-06-20T04:43:11.394Z,2.90
2019-06-20T04:49:12.593Z,2.30
2019-06-20T04:52:00.782Z,3.00
2019-06-20T04:54:49.365Z,2.40
2019-06-20T04:57:40.287Z,2.60
2019-06-20T05:00:28.312Z,2.97
2019-06-20T05:03:16.540Z,3.07
2019-06-20T05:05:45.476Z,2.47
2019-06-20T05:08:33.500Z,2.53
2019-06-20T05:11:21.572Z,3.00
2019-06-20T05:14:09.622Z,2.40
2019-06-20T05:16:38.359Z,2.67
2019-06-20T05:19:26.438Z,2.70
2019-06-20T05:21:55.913Z,2.67
2019-06-20T05:24:25.699Z,2.60
2019-06-20T05:27:08.392Z,4.47
2019-06-20T05:29:48.908Z,3.27
2019-06-20T05:32:29.549Z,2.80
2019-06-20T05:35:10.241Z,3.00
2019-06-20T05:37:39.453Z,3.00
2019-06-20T05:40:08.458Z,3.07
2019-06-20T05:42:56.972Z,2.93
2019-06-20T05:45:48.680Z,2.87
2019-06-20T05:48:16.144Z,2.60
2019-06-20T05:51:04.111Z,2.80
2019-06-20T05:53:52.847Z,2.80
2019-06-20T05:56:40.827Z,33.80
2019-06-20T05:59:09.535Z,34.33
2019-06-20T06:01:57.768Z,38.70
2019-06-20T06:04:26.716Z,44.47
2019-06-20T06:07:14.944Z,40.50
2019-06-20T06:10:04.383Z,42.20
2019-06-20T06:12:52.762Z,41.23
2019-06-20T06:15:41.021Z,39.87
2019-06-20T06:18:29.343Z,39.13
2019-06-20T06:21:17.674Z,33.47
2019-06-20T06:24:05.725Z,39.90
2019-06-20T06:26:46.960Z,43.60
2019-06-20T06:29:28.056Z,39.73
2019-06-20T06:31:57.005Z,41.23
2019-06-20T06:34:45.479Z,38.90
2019-06-20T06:37:33.733Z,41.77
2019-06-20T06:40:02.664Z,40.30
2019-06-20T06:42:50.704Z,38.23
2019-06-20T06:45:38.697Z,30.57
2019-06-20T06:48:27.013Z,29.27
2019-06-20T06:51:15.065Z,17.40
2019-06-20T06:54:03.101Z,11.83
2019-06-20T06:56:31.818Z,15.23
2019-06-20T06:59:19.803Z,8.40
2019-06-20T07:02:07.762Z,9.80
2019-06-20T07:04:55.741Z,6.93
2019-06-20T07:07:24.436Z,10.10
2019-06-20T07:10:20.192Z,5.83
2019-06-20T07:13:08.213Z,9.40
2019-06-20T07:15:56.513Z,6.10
2019-06-20T07:18:45.089Z,6.37
2019-06-20T07:21:13.746Z,9.30
2019-06-20T07:23:42.367Z,5.70
2019-06-20T07:26:23.930Z,6.30
2019-06-20T07:29:04.651Z,6.03
2019-06-20T07:31:45.876Z,5.57
2019-06-20T07:34:27.151Z,7.20
2019-06-20T07:37:07.983Z,5.33
2019-06-20T07:39:48.899Z,5.50
2019-06-20T07:42:29.583Z,5.60
2019-06-20T07:44:58.551Z,5.80
2019-06-20T07:47:27.500Z,4.73
2019-06-20T07:50:15.484Z,5.83
2019-06-20T07:53:03.747Z,4.93
2019-06-20T07:55:32.999Z,5.17
2019-06-20T07:58:21.270Z,7.80
2019-06-20T08:01:09.773Z,5.20
2019-06-20T08:03:58.019Z,6.10
2019-06-20T08:06:45.995Z,5.30
2019-06-20T08:09:44.509Z,11.10
2019-06-20T08:12:23.970Z,5.00
2019-06-20T08:15:15.554Z,5.43
2019-06-20T08:17:42.567Z,4.97
2019-06-20T08:20:11.452Z,5.17
2019-06-20T08:22:40.204Z,5.60
2019-06-20T08:25:08.903Z,5.20
2019-06-20T08:27:57.786Z,8.63
2019-06-20T08:30:46.875Z,5.00
2019-06-20T08:33:34.936Z,5.57
2019-06-20T08:36:23.031Z,5.17
2019-06-20T08:39:11.049Z,5.20
2019-06-20T08:42:00.413Z,5.13
2019-06-20T08:44:29.424Z,5.30
2019-06-20T08:47:17.422Z,4.87
2019-06-20T08:50:06.082Z,5.17
2019-06-20T08:52:57.587Z,5.30
2019-06-20T08:55:45.117Z,5.20
2019-06-20T08:58:33.405Z,4.70
2019-06-20T09:01:21.689Z,9.80
2019-06-20T09:04:09.737Z,5.70
2019-06-20T09:06:59.181Z,5.30
2019-06-20T09:09:48.009Z,7.63
2019-06-20T09:12:16.968Z,5.30
2019-06-20T09:15:04.972Z,5.77
2019-06-20T09:17:55.103Z,5.23
2019-06-20T09:20:42.919Z,4.93
2019-06-20T09:23:31.257Z,5.97
2019-06-20T09:26:19.597Z,4.43
2019-06-20T09:29:07.908Z,5.77
2019-06-20T09:31:56.141Z,5.83
2019-06-20T09:34:44.612Z,5.37
2019-06-20T09:37:32.657Z,7.50
2019-06-20T09:40:20.731Z,5.37
2019-06-20T09:43:08.679Z,5.03
2019-06-20T09:45:56.676Z,5.70
2019-06-20T09:48:44.971Z,5.80
2019-06-20T09:51:33.031Z,6.77
2019-06-20T09:54:21.085Z,12.20
2019-06-20T09:56:53.073Z,15.40
2019-06-20T09:59:39.478Z,14.07
2019-06-20T10:02:27.493Z,12.10
2019-06-20T10:05:15.758Z,14.13
2019-06-20T10:08:03.768Z,9.60
2019-06-20T10:10:52.476Z,17.43
2019-06-20T10:13:40.816Z,16.57
2019-06-20T10:16:44.841Z,17.03
2019-06-20T10:19:00.140Z,11.37
2019-06-20T10:21:49.609Z,15.77
2019-06-20T10:24:19.092Z,13.67
2019-06-20T10:26:59.925Z,19.63
2019-06-20T10:29:40.496Z,14.70
2019-06-20T10:32:21.739Z,17.53
2019-06-20T10:35:02.525Z,18.27
2019-06-20T10:37:31.242Z,14.07
2019-06-20T10:40:00.092Z,12.63
2019-06-20T10:42:28.752Z,13.57
2019-06-20T10:45:37.565Z,15.43
2019-06-20T10:48:25.527Z,13.07
2019-06-20T10:51:32.573Z,15.50
2019-06-20T10:54:01.293Z,14.80
2019-06-20T10:56:49.410Z,14.07
2019-06-20T10:59:37.474Z,19.60
2019-06-20T11:02:25.488Z,10.00
2019-06-20T11:04:54.203Z,14.63
2019-06-20T11:07:43.745Z,12.93
2019-06-20T11:10:31.917Z,13.50
2019-06-20T11:13:00.614Z,12.80
2019-06-20T11:15:48.587Z,16.03
2019-06-20T11:18:37.400Z,12.63
2019-06-20T11:21:26.872Z,16.43
2019-06-20T11:23:56.057Z,13.00
2019-06-20T11:26:44.045Z,9.20
2019-06-20T11:29:25.080Z,10.33
2019-06-20T11:31:53.813Z,12.67
2019-06-20T11:34:42.589Z,10.70
2019-06-20T11:37:32.171Z,8.63
2019-06-20T11:40:20.136Z,16.53
2019-06-20T11:43:08.127Z,9.40
2019-06-20T11:45:56.205Z,10.50
2019-06-20T11:48:44.428Z,9.70
2019-06-20T11:51:34.357Z,8.33
2019-06-20T11:54:22.640Z,11.23
2019-06-20T11:57:10.289Z,14.57
2019-06-20T11:59:58.288Z,8.50
2019-06-20T12:02:48.121Z,13.27
2019-06-20T12:05:36.519Z,7.90
2019-06-20T12:08:24.764Z,10.87
2019-06-20T12:11:13.098Z,10.00
2019-06-20T12:14:01.107Z,9.07
2019-06-20T12:16:49.063Z,7.13
2019-06-20T12:19:38.292Z,11.23
2019-06-20T12:22:26.757Z,7.93
2019-06-20T12:25:15.097Z,9.00
2019-06-20T12:27:55.559Z,7.47
2019-06-20T12:30:36.035Z,7.17
2019-06-20T12:33:16.915Z,9.43
2019-06-20T12:35:57.828Z,6.33
2019-06-20T12:38:26.528Z,6.83
2019-06-20T12:40:55.262Z,5.97
2019-06-20T12:43:23.918Z,15.60
2019-06-20T12:46:11.916Z,16.13
2019-06-20T12:48:59.901Z,21.67
2019-06-20T12:51:28.685Z,20.20
2019-06-20T12:53:57.639Z,26.20
2019-06-20T12:57:02.374Z,22.40
2019-06-20T12:59:19.759Z,11.57
2019-06-20T13:01:51.981Z,14.03
2019-06-20T13:04:21.001Z,14.83
2019-06-20T13:07:09.273Z,16.60
2019-06-20T13:09:58.754Z,19.03
2019-06-20T13:12:46.772Z,19.50
2019-06-20T13:15:34.784Z,13.60
2019-06-20T13:18:22.841Z,10.00
2019-06-20T13:21:11.134Z,13.87
2019-06-20T13:23:59.464Z,10.30
2019-06-20T13:26:28.150Z,18.00
2019-06-20T13:29:04.108Z,9.73
2019-06-20T13:32:06.400Z,9.60
2019-06-20T13:34:54.744Z,11.83
2019-06-20T13:37:23.387Z,6.10
2019-06-20T13:40:11.372Z,6.83
2019-06-20T13:42:59.613Z,8.80
2019-06-20T13:45:28.297Z,8.40
2019-06-20T13:48:16.275Z,6.23
2019-06-20T13:51:04.266Z,6.40
2019-06-20T13:53:32.947Z,6.13
2019-06-20T13:56:01.644Z,5.90
2019-06-20T13:58:51.240Z,7.83
2019-06-20T14:03:59.017Z,5.27
2019-06-20T14:06:27.902Z,5.70
2019-06-20T14:09:15.945Z,6.10
2019-06-20T14:11:45.384Z,6.37
2019-06-20T14:14:34.540Z,6.57
2019-06-20T14:17:22.823Z,5.40
2019-06-20T14:20:11.208Z,6.90
2019-06-20T14:22:59.680Z,7.50
2019-06-20T14:25:28.827Z,7.77
2019-06-20T14:27:58.098Z,10.50
2019-06-20T14:30:46.562Z,7.07
2019-06-20T14:33:15.611Z,10.77
2019-06-20T14:36:03.582Z,10.57
2019-06-20T14:38:51.665Z,12.47
2019-06-20T14:41:39.656Z,13.20
2019-06-20T14:44:27.640Z,8.60
2019-06-20T14:47:15.864Z,7.60
2019-06-20T14:50:04.414Z,8.33
2019-06-20T14:52:54.024Z,13.10
2019-06-20T14:55:23.648Z,14.30
2019-06-20T14:57:53.073Z,13.63
2019-06-20T15:00:23.429Z,12.60
2019-06-20T15:02:56.784Z,15.20
2019-06-20T15:05:44.737Z,19.00
2019-06-20T15:08:32.663Z,13.30
2019-06-20T15:11:20.729Z,10.40
2019-06-20T15:14:09.225Z,13.33
2019-06-20T15:16:37.954Z,17.00
2019-06-20T15:19:25.930Z,12.13
2019-06-20T15:22:13.941Z,13.50
2019-06-20T15:25:02.104Z,9.10
2019-06-20T15:27:53.413Z,13.43
2019-06-20T15:30:34.113Z,8.03
2019-06-20T15:33:14.690Z,12.30
2019-06-20T15:35:56.944Z,14.13
2019-06-20T15:38:39.284Z,5.23
2019-06-20T15:41:27.513Z,4.63
2019-06-20T15:44:16.118Z,5.27
2019-06-20T15:47:04.153Z,4.93
2019-06-20T15:49:52.133Z,5.20
2019-06-20T15:52:41.140Z,4.93
2019-06-20T15:55:29.233Z,5.00
2019-06-20T15:58:17.729Z,6.77
2019-06-20T16:00:46.717Z,5.57
2019-06-20T16:03:34.683Z,6.10
2019-06-20T16:06:03.644Z,5.80
2019-06-20T16:11:44.671Z,4.60
2019-06-20T16:14:32.710Z,4.30
2019-06-20T16:17:02.085Z,4.50
2019-06-20T16:19:50.283Z,4.10
2019-06-20T16:22:18.984Z,9.17
2019-06-20T16:25:06.942Z,3.80
2019-06-20T16:27:54.927Z,4.57
2019-06-20T16:30:23.595Z,3.93
2019-06-20T16:33:24.252Z,4.07
2019-06-20T16:36:01.366Z,6.30
2019-06-20T16:38:49.370Z,4.03
2019-06-20T16:41:37.376Z,3.83
2019-06-20T16:44:25.684Z,4.53
2019-06-20T16:47:14.372Z,4.60
2019-06-20T16:50:02.348Z,4.00
2019-06-20T16:52:50.543Z,4.10
2019-06-20T16:55:38.767Z,4.30
2019-06-20T16:58:27.017Z,4.20
2019-06-20T17:01:15.287Z,4.17
2019-06-20T17:04:03.244Z,6.40
2019-06-20T17:06:51.906Z,4.53
2019-06-20T17:12:11.167Z,3.67
2019-06-20T17:17:15.213Z,4.17
2019-06-20T17:20:03.216Z,4.60
2019-06-20T17:22:51.172Z,4.30
2019-06-20T17:25:39.471Z,4.70
2019-06-20T17:28:27.953Z,4.10
2019-06-20T17:30:57.015Z,4.30
2019-06-20T17:33:57.232Z,4.30
2019-06-20T17:36:35.160Z,4.40
2019-06-20T17:39:23.143Z,4.23
2019-06-20T17:42:11.707Z,4.57
2019-06-20T17:45:00.229Z,4.50
2019-06-20T17:47:29.246Z,4.30
2019-06-20T17:50:17.314Z,4.60
2019-06-20T17:53:05.394Z,4.57
2019-06-20T17:55:53.376Z,5.13
2019-06-20T17:58:41.320Z,4.33
2019-06-20T18:01:10.289Z,4.27
2019-06-20T18:04:12.876Z,4.47
2019-06-20T18:06:48.182Z,4.30
2019-06-20T18:09:37.067Z,4.90
2019-06-20T18:12:25.385Z,4.60
2019-06-20T18:14:54.561Z,11.73
2019-06-20T18:17:42.824Z,8.37
2019-06-20T18:20:32.491Z,7.30
2019-06-20T18:23:21.074Z,10.57
2019-06-20T18:26:09.348Z,20.63
2019-06-20T18:28:51.025Z,20.20
2019-06-20T18:31:32.279Z,7.13
2019-06-20T18:34:28.894Z,12.33
2019-06-20T18:36:55.991Z,11.60
2019-06-20T18:39:25.715Z,17.70
2019-06-20T18:42:13.833Z,6.40
2019-06-20T18:45:02.156Z,3.63
2019-06-20T18:47:50.478Z,4.03
2019-06-20T18:50:19.681Z,3.27
2019-06-20T18:53:08.051Z,3.87
2019-06-20T18:55:56.604Z,9.20
2019-06-20T18:58:44.988Z,13.03
2019-06-20T19:01:33.501Z,3.70
2019-06-20T19:04:02.463Z,6.27
2019-06-20T19:06:51.014Z,13.13
2019-06-20T19:09:39.501Z,5.87
2019-06-20T19:12:28.023Z,3.20
2019-06-20T19:14:56.939Z,6.80
2019-06-20T19:17:44.945Z,4.37
2019-06-20T19:20:33.152Z,3.17
2019-06-20T19:23:21.688Z,3.33
2019-06-20T19:26:09.681Z,2.97
2019-06-20T19:28:57.912Z,4.67
2019-06-20T19:31:38.772Z,8.50
2019-06-20T19:34:07.722Z,5.40
2019-06-20T19:36:55.971Z,6.40
2019-06-20T19:39:25.314Z,8.33
2019-06-20T19:42:13.624Z,5.90
2019-06-20T19:45:01.615Z,3.70
2019-06-20T19:47:30.388Z,3.50
2019-06-20T19:49:59.111Z,4.70
2019-06-20T19:52:47.093Z,2.80
2019-06-20T19:55:15.773Z,2.93
2019-06-20T19:58:03.746Z,3.07
2019-06-20T20:00:51.758Z,3.00
2019-06-20T20:03:20.411Z,3.00
2019-06-20T20:06:08.405Z,3.03
2019-06-20T20:08:37.085Z,2.83
2019-06-20T20:11:05.851Z,4.20
2019-06-20T20:13:53.832Z,4.97
2019-06-20T20:16:41.483Z,19.97
2019-06-20T20:19:29.086Z,9.37
2019-06-20T20:22:17.965Z,2.43
2019-06-20T20:25:06.060Z,4.73
2019-06-20T20:27:54.285Z,2.60
2019-06-20T20:30:35.521Z,6.10
2019-06-20T20:33:04.326Z,6.93
2019-06-20T20:35:52.335Z,5.23
2019-06-20T20:38:21.113Z,2.50
2019-06-20T20:40:49.835Z,3.90
2019-06-20T20:43:19.171Z,4.43
2019-06-20T20:46:07.143Z,3.37
2019-06-20T20:48:55.118Z,3.63
2019-06-20T20:51:43.380Z,8.13
2019-06-20T20:54:31.896Z,6.83
2019-06-20T20:57:01.139Z,2.30
2019-06-20T20:59:49.125Z,4.17
2019-06-20T21:02:18.115Z,3.93
2019-06-20T21:05:06.091Z,3.80
2019-06-20T21:07:54.342Z,2.50
2019-06-20T21:10:23.350Z,7.07
2019-06-20T21:12:52.569Z,6.13
2019-06-20T21:15:40.564Z,12.77
2019-06-20T21:18:09.518Z,2.80
2019-06-20T21:20:57.528Z,11.50
2019-06-20T21:23:45.527Z,3.83
2019-06-20T21:26:48.322Z,6.73
2019-06-20T21:29:23.820Z,3.70
2019-06-20T21:32:04.674Z,3.00
2019-06-20T21:34:33.699Z,4.20
2019-06-20T21:37:21.667Z,3.47
2019-06-20T21:40:11.032Z,5.27
2019-06-20T21:42:59.028Z,2.70
2019-06-20T21:45:27.776Z,5.60
2019-06-20T21:47:56.988Z,2.90
2019-06-20T21:50:25.757Z,3.10
2019-06-20T21:53:13.735Z,3.93
2019-06-20T21:56:01.764Z,2.47
2019-06-20T21:58:50.057Z,2.97
2019-06-20T22:01:18.900Z,2.73
2019-06-20T22:04:07.456Z,2.63
2019-06-20T22:06:55.696Z,2.30
2019-06-20T22:09:44.240Z,2.50
2019-06-20T22:12:32.220Z,2.67
2019-06-20T22:15:20.313Z,3.10
2019-06-20T22:17:48.967Z,2.57
2019-06-20T22:20:37.034Z,2.30
2019-06-20T22:23:05.812Z,2.40
2019-06-20T22:25:53.816Z,2.43
2019-06-20T22:28:42.052Z,2.57
2019-06-20T22:31:11.021Z,2.70
2019-06-20T22:33:59.288Z,2.10
2019-06-20T22:36:39.770Z,2.60
2019-06-20T22:42:12.345Z,2.33
2019-06-20T22:44:43.239Z,2.67
2019-06-20T22:47:31.251Z,3.07
2019-06-20T22:50:19.212Z,3.40
2019-06-20T22:53:07.203Z,4.27
2019-06-20T22:55:55.176Z,2.60
2019-06-20T22:58:43.148Z,2.23
2019-06-20T23:01:31.219Z,2.40
2019-06-20T23:04:19.206Z,2.40
2019-06-20T23:07:07.232Z,3.03
2019-06-20T23:09:35.870Z,2.93
2019-06-20T23:12:17.158Z,2.60
2019-06-20T23:14:57.862Z,2.50
2019-06-20T23:17:26.653Z,2.50
2019-06-20T23:19:55.634Z,2.90
2019-06-20T23:22:43.694Z,2.47
2019-06-20T23:25:32.428Z,2.30
2019-06-20T23:28:01.159Z,4.13
2019-06-20T23:30:49.171Z,2.47
2019-06-20T23:33:17.940Z,2.67
2019-06-20T23:36:06.428Z,2.73
2019-06-20T23:38:54.658Z,2.70
2019-06-20T23:41:42.659Z,2.70
2019-06-20T23:44:31.285Z,2.60
2019-06-20T23:46:59.953Z,2.90
2019-06-20T23:49:47.952Z,2.77
2019-06-20T23:55:44.647Z,3.07
2019-06-20T23:58:32.609Z,2.70
